createdAt,value
2022-08-07T00:00:57.784Z,0.00
2022-08-07T00:02:36.095Z,0.00
2022-08-07T00:02:57.787Z,0.00
2022-08-07T00:03:57.788Z,0.00
2022-08-07T00:04:57.850Z,0.00
2022-08-07T00:05:57.788Z,0.00
2022-08-07T00:07:01.264Z,0.00
2022-08-07T00:07:59.707Z,0.00
2022-08-07T00:08:57.792Z,0.00
2022-08-07T00:10:19.359Z,0.00
2022-08-07T00:10:58.307Z,0.00
2022-08-07T00:11:58.904Z,0.00
2022-08-07T00:13:01.087Z,0.00
2022-08-07T00:13:57.805Z,0.00
2022-08-07T00:14:57.802Z,0.00
2022-08-07T00:15:57.804Z,0.00
2022-08-07T00:16:57.810Z,0.00
2022-08-07T00:17:57.806Z,0.00
2022-08-07T00:18:57.804Z,0.00
2022-08-07T00:20:01.218Z,0.00
2022-08-07T00:21:01.766Z,0.00
2022-08-07T00:22:02.090Z,0.00
2022-08-07T00:22:57.811Z,0.00
2022-08-07T00:23:57.812Z,0.00
2022-08-07T00:24:57.811Z,0.00
2022-08-07T00:25:59.196Z,0.00
2022-08-07T00:27:06.758Z,0.00
2022-08-07T00:27:57.821Z,0.00
2022-08-07T00:28:57.823Z,0.00
2022-08-07T00:29:57.820Z,0.00
2022-08-07T00:30:57.821Z,0.00
2022-08-07T00:31:57.823Z,0.00
2022-08-07T00:32:58.090Z,0.00
2022-08-07T00:33:57.826Z,0.00
2022-08-07T00:34:57.827Z,0.00
2022-08-07T00:35:57.827Z,0.00
2022-08-07T00:36:57.830Z,0.00
2022-08-07T00:37:57.836Z,0.00
2022-08-07T00:38:57.867Z,0.00
2022-08-07T00:39:57.866Z,0.00
2022-08-07T00:40:57.836Z,0.00
2022-08-07T00:42:01.345Z,0.00
2022-08-07T00:42:57.839Z,0.00
2022-08-07T00:44:00.854Z,0.00
2022-08-07T00:44:57.838Z,0.00
2022-08-07T00:45:57.846Z,0.00
2022-08-07T00:46:57.846Z,0.00
2022-08-07T00:48:07.951Z,0.00
2022-08-07T00:48:57.845Z,0.00
2022-08-07T00:50:19.370Z,0.00
2022-08-07T00:50:57.846Z,0.00
2022-08-07T00:51:58.684Z,0.00
2022-08-07T00:52:57.848Z,0.00
2022-08-07T00:53:57.851Z,0.00
2022-08-07T00:54:57.852Z,0.00
2022-08-07T00:56:02.631Z,0.00
2022-08-07T00:56:57.858Z,0.00
2022-08-07T00:57:57.852Z,0.00
2022-08-07T00:58:57.857Z,0.00
2022-08-07T00:59:57.857Z,0.00
2022-08-07T01:00:57.865Z,0.00
2022-08-07T01:01:58.045Z,0.00
2022-08-07T01:02:57.859Z,0.00
2022-08-07T01:04:00.271Z,0.00
2022-08-07T01:04:58.659Z,0.00
2022-08-07T01:05:57.864Z,0.00
2022-08-07T01:06:57.869Z,0.00
2022-08-07T01:07:57.865Z,0.00
2022-08-07T01:08:58.703Z,0.00
2022-08-07T01:10:06.668Z,0.00
2022-08-07T01:10:58.443Z,0.00
2022-08-07T01:12:27.623Z,0.00
2022-08-07T01:12:57.871Z,0.00
2022-08-07T01:13:57.874Z,0.00
2022-08-07T01:15:01.010Z,0.00
2022-08-07T01:16:05.162Z,0.00
2022-08-07T01:16:57.880Z,0.00
2022-08-07T01:17:57.872Z,0.00
2022-08-07T01:18:57.877Z,0.00
2022-08-07T01:19:57.879Z,0.00
2022-08-07T01:20:59.790Z,0.00
2022-08-07T01:21:57.882Z,0.00
2022-08-07T01:23:09.142Z,0.00
2022-08-07T01:23:57.879Z,0.00
2022-08-07T01:24:57.884Z,0.00
2022-08-07T01:25:57.884Z,0.00
2022-08-07T01:26:57.888Z,0.00
2022-08-07T01:27:57.890Z,0.00
2022-08-07T01:28:57.891Z,0.00
2022-08-07T01:29:57.889Z,0.00
2022-08-07T01:30:57.889Z,0.00
2022-08-07T01:31:59.348Z,0.00
2022-08-07T01:32:58.266Z,0.00
2022-08-07T01:33:57.890Z,0.00
2022-08-07T01:34:57.898Z,0.00
2022-08-07T01:36:06.238Z,0.00
2022-08-07T01:36:58.474Z,0.00
2022-08-07T01:37:57.895Z,0.00
2022-08-07T01:38:57.935Z,0.00
2022-08-07T01:39:57.943Z,0.00
2022-08-07T01:40:57.901Z,0.00
2022-08-07T01:42:37.146Z,0.00
2022-08-07T01:42:59.060Z,0.00
2022-08-07T01:43:57.905Z,0.00
2022-08-07T01:44:57.908Z,0.00
2022-08-07T01:45:58.728Z,0.00
2022-08-07T01:46:57.910Z,0.00
2022-08-07T01:48:19.126Z,0.00
2022-08-07T01:48:57.911Z,0.00
2022-08-07T01:49:57.907Z,0.00
2022-08-07T01:50:57.910Z,0.00
2022-08-07T01:52:02.015Z,0.00
2022-08-07T01:52:58.521Z,0.00
2022-08-07T01:54:00.763Z,0.00
2022-08-07T01:54:58.938Z,0.00
2022-08-07T01:55:57.915Z,0.00
2022-08-07T01:56:57.919Z,0.00
2022-08-07T01:58:05.653Z,0.00
2022-08-07T01:58:57.923Z,0.00
2022-08-07T01:59:57.919Z,0.00
2022-08-07T02:01:25.179Z,0.00
2022-08-07T02:02:00.205Z,0.00
2022-08-07T02:03:11.626Z,0.00
2022-08-07T02:03:58.028Z,0.00
2022-08-07T02:04:57.929Z,0.00
2022-08-07T02:05:59.915Z,0.00
2022-08-07T02:06:57.937Z,0.00
2022-08-07T02:07:57.929Z,0.00
2022-08-07T02:08:57.928Z,0.00
2022-08-07T02:09:58.536Z,0.00
2022-08-07T02:10:58.301Z,0.00
2022-08-07T02:12:03.310Z,0.00
2022-08-07T02:12:57.933Z,0.00
2022-08-07T02:14:02.313Z,0.00
2022-08-07T02:14:57.934Z,0.00
2022-08-07T02:15:57.940Z,0.00
2022-08-07T02:16:57.935Z,0.00
2022-08-07T02:17:57.935Z,0.00
2022-08-07T02:18:57.940Z,0.00
2022-08-07T02:20:07.508Z,0.00
2022-08-07T02:20:57.945Z,0.00
2022-08-07T02:21:58.757Z,0.00
2022-08-07T02:22:59.642Z,0.00
2022-08-07T02:23:57.945Z,0.00
2022-08-07T02:24:57.955Z,0.00
2022-08-07T02:26:31.729Z,0.00
2022-08-07T02:26:57.950Z,0.00
2022-08-07T02:27:57.944Z,0.00
2022-08-07T02:28:57.949Z,0.00
2022-08-07T02:29:57.949Z,0.00
2022-08-07T02:30:58.009Z,0.00
2022-08-07T02:31:57.948Z,0.00
2022-08-07T02:33:00.773Z,0.00
2022-08-07T02:34:04.213Z,0.00
2022-08-07T02:34:57.956Z,0.00
2022-08-07T02:36:29.774Z,0.00
2022-08-07T02:36:57.957Z,0.00
2022-08-07T02:37:57.954Z,0.00
2022-08-07T02:38:57.975Z,0.00
2022-08-07T02:40:02.291Z,0.00
2022-08-07T02:40:58.000Z,0.00
2022-08-07T02:41:57.956Z,0.00
2022-08-07T02:42:57.956Z,0.00
2022-08-07T02:43:57.958Z,0.00
2022-08-07T02:44:58.441Z,0.00
2022-08-07T02:46:02.390Z,0.00
2022-08-07T02:46:57.962Z,0.00
2022-08-07T02:47:59.070Z,0.00
2022-08-07T02:48:57.972Z,0.00
2022-08-07T02:49:59.832Z,0.00
2022-08-07T02:50:57.964Z,0.00
2022-08-07T02:51:57.978Z,0.00
2022-08-07T02:53:00.798Z,0.00
2022-08-07T02:53:57.967Z,0.00
2022-08-07T02:54:57.970Z,0.00
2022-08-07T02:56:03.587Z,0.00
2022-08-07T02:56:57.972Z,0.00
2022-08-07T02:57:57.975Z,0.00
2022-08-07T02:58:57.974Z,0.00
2022-08-07T03:00:01.234Z,0.00
2022-08-07T03:00:58.097Z,0.00
2022-08-07T03:02:01.184Z,0.00
2022-08-07T03:02:57.979Z,0.00
2022-08-07T03:03:57.978Z,0.00
2022-08-07T03:04:57.981Z,0.00
2022-08-07T03:05:57.984Z,0.00
2022-08-07T03:06:58.079Z,0.00
2022-08-07T03:08:07.482Z,0.00
2022-08-07T03:08:57.983Z,0.00
2022-08-07T03:09:57.982Z,0.00
2022-08-07T03:10:57.984Z,0.00
2022-08-07T03:12:02.785Z,0.00
2022-08-07T03:12:57.988Z,0.00
2022-08-07T03:14:01.633Z,0.00
2022-08-07T03:14:57.985Z,0.00
2022-08-07T03:15:58.649Z,0.00
2022-08-07T03:16:57.986Z,0.00
2022-08-07T03:17:57.987Z,0.00
2022-08-07T03:18:57.991Z,0.00
2022-08-07T03:19:57.990Z,0.00
2022-08-07T03:20:57.992Z,0.00
2022-08-07T03:21:58.701Z,0.00
2022-08-07T03:22:58.626Z,0.00
2022-08-07T03:24:19.039Z,0.00
2022-08-07T03:24:57.995Z,0.00
2022-08-07T03:25:59.784Z,0.00
2022-08-07T03:26:59.513Z,0.00
2022-08-07T03:28:09.771Z,0.00
2022-08-07T03:28:57.999Z,0.00
2022-08-07T03:29:57.996Z,0.00
2022-08-07T03:30:58.000Z,0.00
2022-08-07T03:31:58.000Z,0.00
2022-08-07T03:32:58.902Z,0.00
2022-08-07T03:33:58.002Z,0.00
2022-08-07T03:35:00.971Z,0.00
2022-08-07T03:35:58.007Z,5.63
2022-08-07T03:36:58.155Z,5.63
2022-08-07T03:37:58.006Z,5.63
2022-08-07T03:38:58.084Z,5.63
2022-08-07T03:40:13.275Z,5.63
2022-08-07T03:40:58.095Z,5.63
2022-08-07T03:41:58.005Z,5.63
2022-08-07T03:42:58.012Z,5.63
2022-08-07T03:43:58.015Z,5.63
2022-08-07T03:44:58.290Z,5.63
2022-08-07T03:45:58.012Z,5.63
2022-08-07T03:47:13.821Z,5.63
2022-08-07T03:47:58.081Z,11.25
2022-08-07T03:49:02.221Z,11.25
2022-08-07T03:49:58.010Z,11.25
2022-08-07T03:50:58.155Z,11.25
2022-08-07T03:52:01.449Z,11.25
2022-08-07T03:52:58.018Z,11.25
2022-08-07T03:54:33.283Z,11.25
2022-08-07T03:55:06.070Z,11.25
2022-08-07T03:56:03.976Z,11.25
2022-08-07T03:57:03.656Z,11.25
2022-08-07T03:58:33.841Z,11.25
2022-08-07T03:59:08.260Z,11.25
2022-08-07T04:00:01.745Z,16.88
2022-08-07T04:01:00.498Z,16.88
2022-08-07T04:01:58.093Z,16.88
2022-08-07T04:02:58.021Z,16.88
2022-08-07T04:03:58.023Z,16.88
2022-08-07T04:04:58.025Z,16.88
2022-08-07T04:05:58.834Z,16.88
2022-08-07T04:06:58.026Z,16.88
2022-08-07T04:07:58.025Z,22.50
2022-08-07T04:08:58.029Z,22.50
2022-08-07T04:09:58.026Z,22.50
2022-08-07T04:11:14.964Z,22.50
2022-08-07T04:12:15.586Z,22.50
2022-08-07T04:12:58.029Z,22.50
2022-08-07T04:14:09.369Z,22.50
2022-08-07T04:14:58.032Z,28.13
2022-08-07T04:15:58.037Z,28.13
2022-08-07T04:16:58.999Z,28.13
2022-08-07T04:18:32.001Z,28.13
2022-08-07T04:19:01.665Z,28.13
2022-08-07T04:19:58.035Z,28.13
2022-08-07T04:20:58.061Z,28.13
2022-08-07T04:21:59.295Z,28.13
2022-08-07T04:23:01.617Z,33.75
2022-08-07T04:24:07.417Z,33.75
2022-08-07T04:24:58.438Z,33.75
2022-08-07T04:25:58.039Z,33.75
2022-08-07T04:26:58.041Z,33.75
2022-08-07T04:27:59.112Z,33.75
2022-08-07T04:28:58.546Z,33.75
2022-08-07T04:30:02.125Z,33.75
2022-08-07T04:30:58.751Z,33.75
2022-08-07T04:32:03.293Z,33.75
2022-08-07T04:32:58.828Z,39.38
2022-08-07T04:33:58.041Z,39.38
2022-08-07T04:34:58.050Z,39.38
2022-08-07T04:35:58.054Z,39.38
2022-08-07T04:36:58.054Z,39.38
2022-08-07T04:38:03.332Z,39.38
2022-08-07T04:38:58.075Z,39.38
2022-08-07T04:39:58.162Z,39.38
2022-08-07T04:40:58.050Z,39.38
2022-08-07T04:41:58.051Z,45.00
2022-08-07T04:43:02.048Z,45.00
2022-08-07T04:44:11.890Z,45.00
2022-08-07T04:45:07.790Z,45.00
2022-08-07T04:46:01.785Z,45.00
2022-08-07T04:47:04.859Z,45.00
2022-08-07T04:48:06.003Z,45.00
2022-08-07T04:48:58.054Z,45.00
2022-08-07T04:50:04.014Z,50.63
2022-08-07T04:50:58.060Z,50.63
2022-08-07T04:51:58.058Z,50.63
2022-08-07T04:52:58.057Z,50.63
2022-08-07T04:54:01.380Z,50.63
2022-08-07T04:54:58.254Z,50.63
2022-08-07T04:58:11.028Z,50.63
2022-08-07T04:58:12.436Z,50.63
2022-08-07T04:58:13.821Z,50.63
2022-08-07T05:00:11.678Z,50.63
2022-08-07T05:00:58.119Z,50.63
2022-08-07T05:01:58.066Z,50.63
2022-08-07T05:02:58.063Z,50.63
2022-08-07T05:04:06.440Z,50.63
2022-08-07T05:04:58.073Z,50.63
2022-08-07T05:05:58.063Z,56.25
2022-08-07T05:06:58.065Z,56.25
2022-08-07T05:07:58.069Z,56.25
2022-08-07T05:09:01.368Z,56.25
2022-08-07T05:09:58.073Z,56.25
2022-08-07T05:10:58.347Z,56.25
2022-08-07T05:12:02.521Z,56.25
2022-08-07T05:13:09.774Z,56.25
2022-08-07T05:14:55.792Z,56.25
2022-08-07T05:15:03.259Z,56.25
2022-08-07T05:15:58.076Z,56.25
2022-08-07T05:16:58.075Z,61.88
2022-08-07T05:17:58.329Z,61.88
2022-08-07T05:18:58.078Z,61.88
2022-08-07T05:19:58.075Z,61.88
2022-08-07T05:20:58.077Z,61.88
2022-08-07T05:21:59.885Z,61.88
2022-08-07T05:22:58.078Z,61.88
2022-08-07T05:23:58.078Z,61.88
2022-08-07T05:24:59.580Z,61.88
2022-08-07T05:26:13.050Z,61.88
2022-08-07T05:26:58.081Z,61.88
2022-08-07T05:28:02.856Z,61.88
2022-08-07T05:28:58.086Z,67.50
2022-08-07T05:29:58.080Z,67.50
2022-08-07T05:30:58.086Z,67.50
2022-08-07T05:31:58.082Z,67.50
2022-08-07T05:32:58.087Z,67.50
2022-08-07T05:34:04.924Z,67.50
2022-08-07T05:34:58.084Z,67.50
2022-08-07T05:35:58.091Z,67.50
2022-08-07T05:36:58.211Z,67.50
2022-08-07T05:38:08.378Z,67.50
2022-08-07T05:39:08.678Z,73.13
2022-08-07T05:40:16.708Z,73.13
2022-08-07T05:40:58.147Z,73.13
2022-08-07T05:42:01.862Z,73.13
2022-08-07T05:42:58.094Z,73.13
2022-08-07T05:44:12.255Z,73.13
2022-08-07T05:45:14.559Z,73.13
2022-08-07T05:45:58.098Z,73.13
2022-08-07T05:46:58.094Z,73.13
2022-08-07T05:48:01.114Z,73.13
2022-08-07T05:48:59.678Z,73.13
2022-08-07T05:49:58.098Z,78.75
2022-08-07T05:50:58.104Z,78.75
2022-08-07T05:51:58.101Z,78.75
2022-08-07T05:52:58.099Z,78.75
2022-08-07T05:54:12.143Z,78.75
2022-08-07T05:54:59.265Z,78.75
2022-08-07T05:56:03.869Z,78.75
2022-08-07T05:56:58.764Z,78.75
2022-08-07T05:57:58.106Z,78.75
2022-08-07T05:58:58.102Z,84.38
2022-08-07T05:59:58.392Z,84.38
2022-08-07T06:00:58.105Z,84.38
2022-08-07T06:01:58.205Z,84.38
2022-08-07T06:02:58.106Z,84.38
2022-08-07T06:04:00.920Z,84.38
2022-08-07T06:04:58.108Z,84.38
2022-08-07T06:05:58.110Z,84.38
2022-08-07T06:07:03.987Z,90.00
2022-08-07T06:08:13.869Z,90.00
2022-08-07T06:08:58.262Z,90.00
2022-08-07T06:10:05.209Z,90.00
2022-08-07T06:10:58.114Z,90.00
2022-08-07T06:11:58.118Z,90.00
2022-08-07T06:12:58.117Z,90.00
2022-08-07T06:14:12.853Z,90.00
2022-08-07T06:15:05.088Z,90.00
2022-08-07T06:15:58.168Z,95.63
2022-08-07T06:16:58.122Z,95.63
2022-08-07T06:17:58.120Z,95.63
2022-08-07T06:18:58.129Z,95.63
2022-08-07T06:20:03.990Z,95.63
2022-08-07T06:22:15.646Z,95.63
2022-08-07T06:22:17.020Z,95.63
2022-08-07T06:23:02.463Z,95.63
2022-08-07T06:24:52.887Z,101.25
2022-08-07T06:25:01.559Z,101.25
2022-08-07T06:25:58.132Z,101.25
2022-08-07T06:26:58.157Z,101.25
2022-08-07T06:28:01.102Z,101.25
2022-08-07T06:28:58.996Z,101.25
2022-08-07T06:29:58.133Z,101.25
2022-08-07T06:30:58.624Z,106.88
2022-08-07T06:31:58.132Z,106.88
2022-08-07T06:32:58.134Z,106.88
2022-08-07T06:33:58.140Z,106.88
2022-08-07T06:34:58.139Z,106.88
2022-08-07T06:36:11.956Z,106.88
2022-08-07T06:36:58.141Z,106.88
2022-08-07T06:37:58.141Z,112.50
2022-08-07T06:40:13.081Z,112.50
2022-08-07T06:40:18.023Z,112.50
2022-08-07T06:40:58.214Z,112.50
2022-08-07T06:42:02.066Z,112.50
2022-08-07T06:42:58.145Z,112.50
2022-08-07T06:44:01.427Z,118.13
2022-08-07T06:44:58.147Z,118.13
2022-08-07T06:46:00.825Z,118.13
2022-08-07T06:47:10.567Z,118.13
2022-08-07T06:47:59.537Z,118.13
2022-08-07T06:48:58.158Z,118.13
2022-08-07T06:49:58.966Z,123.75
2022-08-07T06:50:58.153Z,123.75
2022-08-07T06:52:02.846Z,123.75
2022-08-07T06:52:58.156Z,123.75
2022-08-07T06:55:28.554Z,123.75
2022-08-07T06:55:33.208Z,123.75
2022-08-07T06:56:00.828Z,129.38
2022-08-07T06:56:58.159Z,129.38
2022-08-07T06:57:58.200Z,129.38
2022-08-07T07:00:13.715Z,129.38
2022-08-07T07:00:14.271Z,135.00
2022-08-07T07:00:58.164Z,135.00
2022-08-07T07:01:58.287Z,135.00
2022-08-07T07:03:01.154Z,135.00
2022-08-07T07:04:08.294Z,129.38
2022-08-07T07:04:58.172Z,135.00
2022-08-07T07:06:02.995Z,135.00
2022-08-07T07:07:01.009Z,135.00
2022-08-07T07:08:00.000Z,135.00
2022-08-07T07:08:58.275Z,135.00
2022-08-07T07:09:58.175Z,140.63
2022-08-07T07:10:59.040Z,140.63
2022-08-07T07:12:09.798Z,140.63
2022-08-07T07:12:58.177Z,140.63
2022-08-07T07:14:02.266Z,146.25
2022-08-07T07:14:58.182Z,146.25
2022-08-07T07:15:58.182Z,146.25
2022-08-07T07:16:58.186Z,146.25
2022-08-07T07:17:58.215Z,146.25
2022-08-07T07:18:58.186Z,157.50
2022-08-07T07:19:59.119Z,151.88
2022-08-07T07:20:58.188Z,157.50
2022-08-07T07:22:05.391Z,157.50
2022-08-07T07:24:08.821Z,168.75
2022-08-07T07:24:09.835Z,168.75
2022-08-07T07:25:14.254Z,174.38
2022-08-07T07:26:33.002Z,180.00
2022-08-07T07:26:58.200Z,191.25
2022-08-07T07:30:26.565Z,247.50
2022-08-07T07:33:07.823Z,264.38
2022-08-07T07:34:07.365Z,270.00
2022-08-07T07:35:07.365Z,275.63
2022-08-07T07:36:12.923Z,275.63
2022-08-07T07:37:21.665Z,281.25
2022-08-07T07:38:07.563Z,286.88
2022-08-07T07:39:07.426Z,292.50
2022-08-07T07:40:10.205Z,298.13
2022-08-07T07:41:08.948Z,309.38
2022-08-07T07:42:13.693Z,320.63
2022-08-07T07:43:15.338Z,343.13
2022-08-07T07:44:17.917Z,382.50
2022-08-07T07:45:07.385Z,421.88
2022-08-07T07:46:36.913Z,455.63
2022-08-07T07:47:14.343Z,478.13
2022-08-07T07:48:07.390Z,495.00
2022-08-07T07:50:29.816Z,500.63
2022-08-07T07:50:34.518Z,506.25
2022-08-07T07:51:07.940Z,517.50
2022-08-07T07:52:07.405Z,528.75
2022-08-07T07:53:20.188Z,545.63
2022-08-07T07:54:07.408Z,551.25
2022-08-07T07:55:07.414Z,562.50
2022-08-07T07:56:07.429Z,573.75
2022-08-07T07:57:07.427Z,596.25
2022-08-07T07:58:07.430Z,601.88
2022-08-07T07:59:07.426Z,618.75
2022-08-07T08:00:07.431Z,641.25
2022-08-07T08:02:01.849Z,669.38
2022-08-07T08:02:10.698Z,708.75
2022-08-07T08:03:08.397Z,787.50
2022-08-07T08:04:10.143Z,1006.88
2022-08-07T08:05:11.534Z,2064.38
2022-08-07T08:06:07.464Z,3037.50
2022-08-07T08:07:07.647Z,3330.00
2022-08-07T08:08:07.482Z,3532.50
2022-08-07T08:09:08.118Z,3768.75
2022-08-07T08:10:07.487Z,3937.50
2022-08-07T08:11:08.445Z,3948.75
2022-08-07T08:12:07.498Z,3864.38
2022-08-07T08:13:10.404Z,3802.50
2022-08-07T08:14:07.597Z,3892.50
2022-08-07T08:15:07.526Z,3898.13
2022-08-07T08:16:07.532Z,3903.75
2022-08-07T08:17:55.676Z,3898.13
2022-08-07T08:18:17.624Z,3847.50
2022-08-07T08:19:18.170Z,3802.50
2022-08-07T08:20:18.170Z,3898.13
2022-08-07T08:21:07.653Z,3915.00
2022-08-07T08:22:07.910Z,4055.63
2022-08-07T08:23:10.226Z,4151.25
2022-08-07T08:28:37.662Z,4365.00
2022-08-07T08:29:26.827Z,4415.63
2022-08-07T08:30:26.840Z,4387.50
2022-08-07T08:31:30.198Z,4252.50
2022-08-07T08:32:38.161Z,191.25
2022-08-07T08:33:28.922Z,185.63
2022-08-07T08:34:29.171Z,185.63
2022-08-07T08:35:28.751Z,191.25
2022-08-07T08:36:29.933Z,191.25
2022-08-07T08:38:01.507Z,191.25
2022-08-07T08:38:30.087Z,191.25
2022-08-07T08:39:39.532Z,191.25
2022-08-07T08:40:28.774Z,191.25
2022-08-07T08:41:31.357Z,191.25
2022-08-07T08:42:26.973Z,196.88
2022-08-07T08:43:41.878Z,196.88
2022-08-07T08:44:29.476Z,196.88
2022-08-07T08:45:58.350Z,196.88
2022-08-07T08:46:27.017Z,196.88
2022-08-07T08:48:10.765Z,202.50
2022-08-07T08:49:09.789Z,202.50
2022-08-07T08:50:09.603Z,202.50
2022-08-07T08:51:14.570Z,202.50
2022-08-07T08:52:13.729Z,202.50
2022-08-07T08:53:09.626Z,208.13
2022-08-07T08:54:09.635Z,208.13
2022-08-07T08:56:59.809Z,208.13
2022-08-07T08:57:59.805Z,208.13
2022-08-07T08:58:59.818Z,208.13
2022-08-07T09:00:00.097Z,213.75
2022-08-07T09:02:35.111Z,225.00
2022-08-07T09:03:47.661Z,230.63
2022-08-07T09:06:11.326Z,208.13
2022-08-07T09:07:11.321Z,208.13
2022-08-07T09:08:10.826Z,208.13
2022-08-07T09:10:48.493Z,219.38
2022-08-07T09:11:53.332Z,208.13
2022-08-07T09:12:53.605Z,213.75
2022-08-07T09:13:48.514Z,219.38
2022-08-07T09:14:51.011Z,219.38
2022-08-07T09:16:23.995Z,219.38
2022-08-07T09:16:48.534Z,219.38
2022-08-07T09:17:59.226Z,219.38
2022-08-07T09:18:53.145Z,225.00
2022-08-07T09:19:52.684Z,230.63
2022-08-07T09:20:58.651Z,230.63
2022-08-07T09:22:23.102Z,236.25
2022-08-07T09:24:30.646Z,241.88
2022-08-07T09:24:33.900Z,236.25
2022-08-07T09:24:59.381Z,241.88
2022-08-07T09:25:54.426Z,247.50
2022-08-07T09:26:51.113Z,253.13
2022-08-07T09:28:00.375Z,258.75
2022-08-07T09:30:00.814Z,264.38
2022-08-07T09:30:06.698Z,264.38
2022-08-07T09:30:52.898Z,253.13
2022-08-07T09:31:49.464Z,253.13
2022-08-07T09:32:48.635Z,258.75
2022-08-07T09:33:57.165Z,270.00
2022-08-07T09:34:54.046Z,270.00
2022-08-07T09:36:05.339Z,275.63
2022-08-07T09:37:56.270Z,185.63
2022-08-07T09:38:56.264Z,208.13
2022-08-07T09:39:56.355Z,146.25
2022-08-07T09:40:56.285Z,135.00
2022-08-07T09:42:03.218Z,168.75
2022-08-07T09:42:56.290Z,191.25
2022-08-07T09:44:06.872Z,168.75
2022-08-07T09:47:24.790Z,135.00
2022-08-07T09:47:25.852Z,146.25
2022-08-07T09:47:52.427Z,140.63
2022-08-07T09:48:01.429Z,129.38
2022-08-07T09:50:02.316Z,135.00
2022-08-07T09:50:43.886Z,146.25
2022-08-07T09:52:16.132Z,157.50
2022-08-07T09:52:43.900Z,151.88
2022-08-07T09:53:55.131Z,140.63
2022-08-07T09:56:03.932Z,151.88
2022-08-07T09:57:29.221Z,146.25
2022-08-07T09:58:32.291Z,123.75
2022-08-07T09:59:35.805Z,123.75
2022-08-07T10:00:29.854Z,129.38
2022-08-07T10:01:51.522Z,135.00
2022-08-07T10:02:29.660Z,140.63
2022-08-07T10:04:07.240Z,146.25
2022-08-07T10:04:32.829Z,151.88
2022-08-07T10:05:58.293Z,157.50
2022-08-07T10:06:29.166Z,157.50
2022-08-07T10:07:31.634Z,157.50
2022-08-07T10:08:29.155Z,151.88
2022-08-07T10:09:34.303Z,163.13
2022-08-07T10:10:30.054Z,292.50
2022-08-07T10:12:02.143Z,146.25
2022-08-07T10:12:29.127Z,123.75
2022-08-07T10:13:55.265Z,123.75
2022-08-07T10:14:30.381Z,123.75
2022-08-07T10:15:29.142Z,123.75
2022-08-07T10:16:29.143Z,140.63
2022-08-07T10:17:33.693Z,292.50
2022-08-07T10:18:29.151Z,163.13
2022-08-07T10:19:30.074Z,146.25
2022-08-07T10:20:31.856Z,135.00
2022-08-07T10:22:12.609Z,146.25
2022-08-07T10:22:33.532Z,151.88
2022-08-07T10:24:06.480Z,157.50
2022-08-07T10:24:29.181Z,151.88
2022-08-07T10:25:42.298Z,140.63
2022-08-07T10:26:29.188Z,140.63
2022-08-07T10:27:30.292Z,140.63
2022-08-07T10:28:29.197Z,135.00
2022-08-07T10:29:30.306Z,140.63
2022-08-07T10:30:29.209Z,146.25
2022-08-07T10:31:31.389Z,146.25
2022-08-07T10:32:37.135Z,247.50
2022-08-07T10:34:05.645Z,326.25
2022-08-07T10:34:32.173Z,270.00
2022-08-07T10:35:53.654Z,309.38
2022-08-07T10:36:30.137Z,219.38
2022-08-07T10:38:00.148Z,247.50
2022-08-07T10:38:36.121Z,343.13
2022-08-07T10:39:41.312Z,360.00
2022-08-07T10:40:30.027Z,191.25
2022-08-07T10:41:46.986Z,258.75
2022-08-07T10:42:31.237Z,151.88
2022-08-07T10:43:34.159Z,151.88
2022-08-07T10:44:38.710Z,151.88
2022-08-07T10:46:29.278Z,151.88
2022-08-07T10:47:52.892Z,157.50
2022-08-07T10:48:34.589Z,168.75
2022-08-07T10:49:49.337Z,303.75
2022-08-07T10:50:29.295Z,371.25
2022-08-07T10:51:39.631Z,371.25
2022-08-07T10:52:33.632Z,315.00
2022-08-07T10:53:43.929Z,180.00
2022-08-07T10:54:29.313Z,174.38
2022-08-07T10:55:37.864Z,163.13
2022-08-07T10:56:31.653Z,163.13
2022-08-07T10:58:11.876Z,174.38
2022-08-07T10:59:13.610Z,331.88
2022-08-07T11:00:36.675Z,281.25
2022-08-07T11:01:12.333Z,365.63
2022-08-07T11:02:33.186Z,376.88
2022-08-07T11:03:12.640Z,315.00
2022-08-07T11:04:31.653Z,213.75
2022-08-07T11:05:11.901Z,191.25
2022-08-07T11:06:11.911Z,185.63
2022-08-07T11:07:24.891Z,213.75
2022-08-07T11:08:11.953Z,196.88
2022-08-07T11:09:11.921Z,337.50
2022-08-07T11:10:11.939Z,348.75
2022-08-07T11:11:11.932Z,354.38
2022-08-07T11:12:11.940Z,360.00
2022-08-07T11:13:42.424Z,348.75
2022-08-07T11:14:44.340Z,337.50
2022-08-07T11:15:14.894Z,331.88
2022-08-07T11:16:11.962Z,326.25
2022-08-07T11:18:04.696Z,331.88
2022-08-07T11:19:04.530Z,337.50
2022-08-07T11:20:04.539Z,348.75
2022-08-07T11:21:04.539Z,360.00
2022-08-07T11:22:04.544Z,348.75
2022-08-07T11:23:04.552Z,360.00
2022-08-07T11:24:04.555Z,365.63
2022-08-07T11:25:06.841Z,360.00
2022-08-07T11:26:07.201Z,354.38
2022-08-07T11:27:04.568Z,354.38
2022-08-07T11:28:04.874Z,365.63
2022-08-07T11:29:05.521Z,371.25
2022-08-07T11:30:17.863Z,331.88
2022-08-07T11:31:08.781Z,382.50
2022-08-07T11:32:04.591Z,382.50
2022-08-07T11:33:07.997Z,371.25
2022-08-07T11:34:04.600Z,360.00
2022-08-07T11:35:05.418Z,354.38
2022-08-07T11:36:08.147Z,348.75
2022-08-07T11:37:04.614Z,343.13
2022-08-07T11:38:12.524Z,343.13
2022-08-07T11:39:04.657Z,343.13
2022-08-07T11:40:04.711Z,354.38
2022-08-07T11:41:04.645Z,360.00
2022-08-07T11:42:04.658Z,360.00
2022-08-07T11:43:04.647Z,343.13
2022-08-07T11:44:12.525Z,354.38
2022-08-07T11:45:04.652Z,360.00
2022-08-07T11:46:04.662Z,371.25
2022-08-07T11:47:04.671Z,410.63
2022-08-07T11:48:13.716Z,360.00
2022-08-07T11:49:50.696Z,281.25
2022-08-07T11:50:30.545Z,376.88
2022-08-07T11:51:04.683Z,376.88
2022-08-07T11:52:04.691Z,371.25
2022-08-07T11:53:05.055Z,376.88
2022-08-07T11:54:10.120Z,376.88
2022-08-07T11:55:09.042Z,376.88
2022-08-07T11:56:24.998Z,388.13
2022-08-07T11:57:04.715Z,399.38
2022-08-07T11:58:04.785Z,421.88
2022-08-07T11:59:04.728Z,444.38
2022-08-07T12:00:12.561Z,489.38
2022-08-07T12:01:06.637Z,810.00
2022-08-07T12:02:04.824Z,3048.75
2022-08-07T12:03:04.907Z,4854.38
2022-08-07T12:04:04.760Z,5180.63
2022-08-07T12:05:08.981Z,5270.63
2022-08-07T12:06:39.140Z,4640.63
2022-08-07T12:07:09.119Z,3031.88
2022-08-07T12:08:04.782Z,1125.00
2022-08-07T12:09:04.788Z,871.88
2022-08-07T12:10:05.930Z,871.88
2022-08-07T12:11:20.023Z,888.75
2022-08-07T12:12:09.392Z,911.25
2022-08-07T12:13:11.661Z,990.00
2022-08-07T12:14:04.823Z,967.50
2022-08-07T12:15:04.825Z,950.63
2022-08-07T12:16:06.105Z,945.00
2022-08-07T12:17:04.839Z,973.13
2022-08-07T12:18:08.146Z,961.88
2022-08-07T12:19:04.855Z,967.50
2022-08-07T12:20:09.530Z,1012.50
2022-08-07T12:21:04.870Z,978.75
2022-08-07T12:22:38.655Z,973.13
2022-08-07T12:23:09.100Z,961.88
2022-08-07T12:24:36.901Z,961.88
2022-08-07T12:25:07.688Z,950.63
2022-08-07T12:26:28.640Z,950.63
2022-08-07T12:27:04.913Z,945.00
2022-08-07T12:28:09.414Z,950.63
2022-08-07T12:29:04.927Z,950.63
2022-08-07T12:30:04.935Z,922.50
2022-08-07T12:31:04.947Z,888.75
2022-08-07T12:32:05.811Z,860.63
2022-08-07T12:33:18.718Z,843.75
2022-08-07T12:34:04.979Z,832.50
2022-08-07T12:35:07.302Z,793.13
2022-08-07T12:36:05.651Z,770.63
2022-08-07T12:37:08.315Z,731.25
2022-08-07T12:38:11.596Z,714.38
2022-08-07T12:39:43.026Z,675.00
2022-08-07T12:40:05.061Z,658.13
2022-08-07T12:41:05.083Z,658.13
2022-08-07T12:42:05.034Z,624.38
2022-08-07T12:43:09.209Z,590.63
2022-08-07T12:44:06.411Z,562.50
2022-08-07T12:45:06.597Z,528.75
2022-08-07T12:46:05.067Z,534.38
2022-08-07T12:47:06.284Z,500.63
2022-08-07T12:48:05.086Z,506.25
2022-08-07T12:49:10.272Z,495.00
2022-08-07T12:50:39.537Z,483.75
2022-08-07T12:51:17.406Z,483.75
2022-08-07T12:52:12.162Z,472.50
2022-08-07T12:53:17.908Z,450.00
2022-08-07T12:54:38.152Z,427.50
2022-08-07T12:55:09.646Z,410.63
2022-08-07T12:56:09.338Z,388.13
2022-08-07T12:57:09.810Z,376.88
2022-08-07T12:58:05.168Z,376.88
2022-08-07T12:59:05.185Z,410.63
2022-08-07T13:00:05.190Z,382.50
2022-08-07T13:01:05.240Z,376.88
2022-08-07T13:02:09.903Z,365.63
2022-08-07T13:03:06.765Z,360.00
2022-08-07T13:04:05.562Z,354.38
2022-08-07T13:05:06.457Z,354.38
2022-08-07T13:06:21.641Z,360.00
2022-08-07T13:07:05.250Z,365.63
2022-08-07T13:08:14.029Z,360.00
2022-08-07T13:09:12.555Z,354.38
2022-08-07T13:10:22.029Z,354.38